createdAt,value
2022-12-18T00:02:14.291Z,17.80
2022-12-18T00:04:40.944Z,14.82
2022-12-18T00:07:07.549Z,14.93
2022-12-18T00:09:39.475Z,17.35
2022-12-18T00:14:45.245Z,16.90
2022-12-18T00:17:12.123Z,16.30
2022-12-18T00:19:38.629Z,15.75
2022-12-18T00:22:06.064Z,16.60
2022-12-18T00:24:32.795Z,16.90
2022-12-18T00:26:59.334Z,15.55
2022-12-18T00:29:25.860Z,15.50
2022-12-18T00:31:52.622Z,17.52
2022-12-18T00:34:19.178Z,17.55
2022-12-18T00:36:48.658Z,16.30
2022-12-18T00:39:15.352Z,15.98
2022-12-18T00:42:00.480Z,16.65
2022-12-18T00:44:27.183Z,16.75
2022-12-18T00:46:53.828Z,17.15
2022-12-18T00:49:20.836Z,17.20
2022-12-18T00:51:48.589Z,17.30
2022-12-18T00:54:15.821Z,17.10
2022-12-18T00:56:50.076Z,15.80
2022-12-18T00:59:19.694Z,15.43
2022-12-18T01:01:47.037Z,15.68
2022-12-18T01:04:14.265Z,15.80
2022-12-18T01:06:41.328Z,16.15
2022-12-18T01:09:07.818Z,16.77
2022-12-18T01:11:34.385Z,16.00
2022-12-18T01:14:01.172Z,16.88
2022-12-18T01:16:28.053Z,16.65
2022-12-18T01:18:55.872Z,16.90
2022-12-18T01:21:23.639Z,16.73
2022-12-18T01:23:54.929Z,16.90
2022-12-18T01:26:21.791Z,15.63
2022-12-18T01:28:48.871Z,15.50
2022-12-18T01:31:28.886Z,16.02
2022-12-18T01:33:56.248Z,16.85
2022-12-18T01:36:26.159Z,15.77
2022-12-18T01:38:53.303Z,16.27
2022-12-18T01:41:23.520Z,17.13
2022-12-18T01:43:58.779Z,16.35
2022-12-18T01:46:28.441Z,16.13
2022-12-18T01:48:58.654Z,16.67
2022-12-18T01:51:26.662Z,16.80
2022-12-18T01:53:53.397Z,18.60
2022-12-18T01:56:21.958Z,17.38
2022-12-18T01:58:57.352Z,17.05
2022-12-18T02:04:20.881Z,16.10
2022-12-18T02:06:51.880Z,16.85
2022-12-18T02:11:57.375Z,14.65
2022-12-18T02:14:42.732Z,15.98
2022-12-18T02:17:13.448Z,16.85
2022-12-18T02:19:58.769Z,16.17
2022-12-18T02:22:56.348Z,15.40
2022-12-18T02:25:41.344Z,15.43
2022-12-18T02:28:12.601Z,14.55
2022-12-18T02:30:40.889Z,14.05
2022-12-18T02:33:10.816Z,14.43
2022-12-18T02:35:37.909Z,13.82
2022-12-18T02:38:05.389Z,14.88
2022-12-18T02:40:32.898Z,15.10
2022-12-18T02:43:14.869Z,14.93
2022-12-18T02:45:50.726Z,14.48
2022-12-18T02:48:20.127Z,13.05
2022-12-18T02:50:55.661Z,15.07
2022-12-18T02:53:38.481Z,14.70
2022-12-18T02:56:21.146Z,15.30
2022-12-18T02:59:19.925Z,14.75
2022-12-18T03:02:17.061Z,15.38
2022-12-18T03:05:01.822Z,14.93
2022-12-18T03:07:46.543Z,14.90
2022-12-18T03:10:22.187Z,14.13
2022-12-18T03:13:01.836Z,14.90
2022-12-18T03:15:56.492Z,14.85
2022-12-18T03:18:28.299Z,15.60
2022-12-18T03:20:57.680Z,15.20
2022-12-18T03:23:29.275Z,13.10
2022-12-18T03:26:05.873Z,14.00
2022-12-18T03:28:38.309Z,15.23
2022-12-18T03:31:08.132Z,15.18
2022-12-18T03:33:47.425Z,14.95
2022-12-18T03:36:15.023Z,14.85
2022-12-18T03:38:41.727Z,15.30
2022-12-18T03:41:20.960Z,14.18
2022-12-18T03:43:58.239Z,15.55
2022-12-18T03:46:45.000Z,14.30
2022-12-18T03:49:18.062Z,14.70
2022-12-18T03:51:51.424Z,15.30
2022-12-18T03:54:19.047Z,14.30
2022-12-18T03:56:50.307Z,15.10
2022-12-18T03:59:18.338Z,14.63
2022-12-18T04:01:50.296Z,14.20
2022-12-18T04:04:18.797Z,15.20
2022-12-18T04:06:47.921Z,15.23
2022-12-18T04:09:15.112Z,14.63
2022-12-18T04:11:44.797Z,14.45
2022-12-18T04:14:17.601Z,14.98
2022-12-18T04:16:45.155Z,14.32
2022-12-18T04:19:11.658Z,15.43
2022-12-18T04:21:38.334Z,13.15
2022-12-18T04:24:04.995Z,14.55
2022-12-18T04:26:31.480Z,14.27
2022-12-18T04:28:58.083Z,15.32
2022-12-18T04:31:24.743Z,14.07
2022-12-18T04:33:51.294Z,14.30
2022-12-18T04:36:17.872Z,14.55
2022-12-18T04:38:44.652Z,13.80
2022-12-18T04:41:13.779Z,14.40
2022-12-18T04:43:40.736Z,13.88
2022-12-18T04:46:09.005Z,14.88
2022-12-18T04:48:38.016Z,14.68
2022-12-18T04:51:06.102Z,14.35
2022-12-18T04:53:32.842Z,15.52
2022-12-18T04:56:14.399Z,15.35
2022-12-18T04:58:42.470Z,14.45
2022-12-18T05:01:09.894Z,14.48
2022-12-18T05:03:38.311Z,15.52
2022-12-18T05:06:06.688Z,15.30
2022-12-18T05:08:34.045Z,14.05
2022-12-18T05:11:09.103Z,13.95
2022-12-18T05:13:36.827Z,14.98
2022-12-18T05:16:03.956Z,16.45
2022-12-18T05:18:32.034Z,15.45
2022-12-18T05:20:58.674Z,15.32
2022-12-18T05:23:25.842Z,15.65
2022-12-18T05:25:54.956Z,15.15
2022-12-18T05:28:22.920Z,14.43
2022-12-18T05:30:55.840Z,14.25
2022-12-18T05:33:24.082Z,15.27
2022-12-18T05:35:55.465Z,14.40
2022-12-18T05:38:23.557Z,15.05
2022-12-18T05:40:50.861Z,14.93
2022-12-18T05:43:21.330Z,15.25
2022-12-18T05:45:49.175Z,14.68
2022-12-18T05:48:16.257Z,15.05
2022-12-18T05:50:46.520Z,14.35
2022-12-18T05:53:14.863Z,14.52
2022-12-18T05:55:42.346Z,15.23
2022-12-18T05:58:10.173Z,14.73
2022-12-18T06:00:40.938Z,14.55
2022-12-18T06:03:09.006Z,15.02
2022-12-18T06:05:40.519Z,14.32
2022-12-18T06:10:35.704Z,13.27
2022-12-18T06:13:02.419Z,14.30
2022-12-18T06:15:29.100Z,14.98
2022-12-18T06:17:55.625Z,15.02
2022-12-18T06:20:22.979Z,14.38
2022-12-18T06:22:49.867Z,14.80
2022-12-18T06:25:16.536Z,14.77
2022-12-18T06:27:43.216Z,15.35
2022-12-18T06:30:11.119Z,15.00
2022-12-18T06:32:37.821Z,13.88
2022-12-18T06:35:04.960Z,14.38
2022-12-18T06:37:32.620Z,13.77
2022-12-18T06:39:59.249Z,13.68
2022-12-18T06:42:26.176Z,14.35
2022-12-18T06:44:53.012Z,14.55
2022-12-18T06:47:19.807Z,15.18
2022-12-18T06:49:46.456Z,15.05
2022-12-18T06:52:13.060Z,13.48
2022-12-18T06:54:39.543Z,15.63
2022-12-18T06:57:06.103Z,16.52
2022-12-18T06:59:32.759Z,15.68
2022-12-18T07:01:59.409Z,15.43
2022-12-18T07:04:32.878Z,15.73
2022-12-18T07:06:59.501Z,15.70
2022-12-18T07:09:26.504Z,14.25
2022-12-18T07:11:53.580Z,14.63
2022-12-18T07:14:20.340Z,15.48
2022-12-18T07:16:47.802Z,15.60
2022-12-18T07:19:14.461Z,15.98
2022-12-18T07:21:41.542Z,15.32
2022-12-18T07:24:08.399Z,15.68
2022-12-18T07:26:35.006Z,15.43
2022-12-18T07:29:01.624Z,15.13
2022-12-18T07:31:28.376Z,15.45
2022-12-18T07:33:55.566Z,15.90
2022-12-18T07:36:25.144Z,15.45
2022-12-18T07:38:53.437Z,14.52
2022-12-18T07:41:20.352Z,15.30
2022-12-18T07:43:47.544Z,16.90
2022-12-18T07:46:15.524Z,15.35
2022-12-18T07:48:49.931Z,15.38
2022-12-18T07:51:18.345Z,15.57
2022-12-18T07:53:45.406Z,15.13
2022-12-18T07:56:30.422Z,16.33
2022-12-18T07:58:58.104Z,17.48
2022-12-18T08:01:25.336Z,14.90
2022-12-18T08:03:52.434Z,16.20
2022-12-18T08:06:22.743Z,14.93
2022-12-18T08:08:52.354Z,15.18
2022-12-18T08:11:18.849Z,15.15
2022-12-18T08:13:46.468Z,16.48
2022-12-18T08:16:13.094Z,15.85
2022-12-18T08:18:39.633Z,15.38
2022-12-18T08:21:10.999Z,16.40
2022-12-18T08:23:42.278Z,15.60
2022-12-18T08:26:10.865Z,14.73
2022-12-18T08:28:37.464Z,14.68
2022-12-18T08:31:04.967Z,15.57
2022-12-18T08:33:31.813Z,15.45
2022-12-18T08:35:59.496Z,15.68
2022-12-18T08:38:26.096Z,17.00
2022-12-18T08:41:06.503Z,14.60
2022-12-18T08:43:51.971Z,16.35
2022-12-18T08:46:23.411Z,15.98
2022-12-18T08:51:18.440Z,15.48
2022-12-18T08:53:46.067Z,16.73
2022-12-18T08:56:13.536Z,16.55
2022-12-18T08:58:40.448Z,15.65
2022-12-18T09:01:10.253Z,17.60
2022-12-18T09:03:37.623Z,16.42
2022-12-18T09:06:04.547Z,16.17
2022-12-18T09:08:31.139Z,18.23
2022-12-18T09:10:57.776Z,17.10
2022-12-18T09:13:25.083Z,17.10
2022-12-18T09:15:54.095Z,18.13
2022-12-18T09:18:22.206Z,16.83
2022-12-18T09:20:48.949Z,17.83
2022-12-18T09:23:15.864Z,17.58
2022-12-18T09:25:42.559Z,17.08
2022-12-18T09:28:17.193Z,17.10
2022-12-18T09:30:46.936Z,17.17
2022-12-18T09:33:14.687Z,16.45
2022-12-18T09:35:42.885Z,16.67
2022-12-18T09:38:13.636Z,17.73
2022-12-18T09:40:46.162Z,17.55
2022-12-18T09:43:43.276Z,16.75
2022-12-18T09:46:17.160Z,16.50
2022-12-18T09:48:47.412Z,17.30
2022-12-18T09:51:20.772Z,18.95
2022-12-18T09:54:17.572Z,18.15
2022-12-18T09:56:44.931Z,16.83
2022-12-18T09:59:22.338Z,16.65
2022-12-18T10:01:49.061Z,17.30
2022-12-18T10:04:16.042Z,16.42
2022-12-18T10:07:09.448Z,16.20
2022-12-18T10:10:04.069Z,16.30
2022-12-18T10:12:45.841Z,15.55
2022-12-18T10:15:44.559Z,15.80
2022-12-18T10:18:42.513Z,16.00
2022-12-18T10:21:18.823Z,15.32
2022-12-18T10:24:14.924Z,15.23
2022-12-18T10:26:42.854Z,17.42
2022-12-18T10:29:15.477Z,16.70
2022-12-18T10:31:42.223Z,16.08
2022-12-18T10:34:16.085Z,16.48
2022-12-18T10:36:43.482Z,18.25
2022-12-18T10:39:24.661Z,17.30
2022-12-18T10:41:51.362Z,17.65
2022-12-18T10:44:27.465Z,17.05
2022-12-18T10:47:10.190Z,16.88
2022-12-18T10:49:43.365Z,16.35
2022-12-18T10:52:18.996Z,17.05
2022-12-18T10:54:59.360Z,17.77
2022-12-18T10:57:33.600Z,17.30
2022-12-18T11:00:02.479Z,17.55
2022-12-18T11:02:38.936Z,17.70
2022-12-18T11:05:26.419Z,17.02
2022-12-18T11:07:55.077Z,17.27
2022-12-18T11:10:26.267Z,17.95
2022-12-18T11:12:53.235Z,18.08
2022-12-18T11:15:30.837Z,18.25
2022-12-18T11:17:57.637Z,16.98
2022-12-18T11:20:28.259Z,17.45
2022-12-18T11:23:00.854Z,18.08
2022-12-18T11:25:33.274Z,17.15
2022-12-18T11:28:03.797Z,17.77
2022-12-18T11:30:31.465Z,17.40
2022-12-18T11:33:07.485Z,17.67
2022-12-18T11:35:46.587Z,17.17
2022-12-18T11:38:13.216Z,17.20
2022-12-18T11:40:44.897Z,16.45
2022-12-18T11:43:19.999Z,18.08
2022-12-18T11:45:54.129Z,17.70
2022-12-18T11:48:28.690Z,17.98
2022-12-18T11:50:57.821Z,18.65
2022-12-18T11:53:26.583Z,18.50
2022-12-18T11:56:18.560Z,17.35
2022-12-18T11:59:34.024Z,18.58
2022-12-18T12:02:13.090Z,17.60
2022-12-18T12:04:49.086Z,14.98
2022-12-18T12:07:39.906Z,17.58
2022-12-18T12:10:46.652Z,16.80
2022-12-18T12:13:54.716Z,18.02
2022-12-18T12:17:07.351Z,17.23
2022-12-18T12:19:38.486Z,14.85
2022-12-18T12:22:16.821Z,16.52
2022-12-18T12:24:52.866Z,15.38
2022-12-18T12:27:24.253Z,17.30
2022-12-18T12:32:36.313Z,16.17
2022-12-18T12:35:21.199Z,17.70
2022-12-18T12:38:00.997Z,17.20
2022-12-18T12:43:22.761Z,18.17
2022-12-18T12:46:09.966Z,18.77
2022-12-18T12:48:43.609Z,17.85
2022-12-18T12:51:35.685Z,18.38
2022-12-18T12:54:05.448Z,15.98
2022-12-18T12:56:51.971Z,17.27
2022-12-18T12:59:30.457Z,17.35
2022-12-18T13:02:06.132Z,16.42
2022-12-18T13:04:42.167Z,17.05
2022-12-18T13:07:18.954Z,17.75
2022-12-18T13:10:25.702Z,16.92
2022-12-18T13:16:09.157Z,16.83
2022-12-18T13:18:36.311Z,17.15
2022-12-18T13:21:42.568Z,17.60
2022-12-18T13:24:36.735Z,17.45
2022-12-18T13:27:41.561Z,17.00
2022-12-18T13:30:33.906Z,17.10
2022-12-18T13:33:16.260Z,15.77
2022-12-18T13:35:48.688Z,16.25
2022-12-18T13:38:37.044Z,16.33
2022-12-18T13:41:16.212Z,16.45
2022-12-18T13:43:46.996Z,16.38
2022-12-18T13:46:21.132Z,17.30
2022-12-18T13:48:54.895Z,15.65
2022-12-18T13:51:22.490Z,16.08
2022-12-18T13:54:06.574Z,16.55
2022-12-18T13:56:35.319Z,16.48
2022-12-18T13:59:14.465Z,16.73
2022-12-18T14:01:46.568Z,16.02
2022-12-18T14:04:20.969Z,17.60
2022-12-18T14:06:48.696Z,17.38
2022-12-18T14:09:25.301Z,17.77
2022-12-18T14:11:53.258Z,16.80
2022-12-18T14:14:20.528Z,17.15
2022-12-18T14:16:48.460Z,17.10
2022-12-18T14:19:19.295Z,18.77
2022-12-18T14:21:50.798Z,17.55
2022-12-18T14:24:22.496Z,16.58
2022-12-18T14:26:51.174Z,15.57
2022-12-18T14:29:29.784Z,16.25
2022-12-18T14:32:19.290Z,14.95
2022-12-18T14:34:52.647Z,15.63
2022-12-18T14:37:24.050Z,17.83
2022-12-18T14:40:08.654Z,17.23
2022-12-18T14:42:35.470Z,17.33
2022-12-18T14:45:40.978Z,17.73
2022-12-18T14:48:23.028Z,17.30
2022-12-18T14:51:01.852Z,16.50
2022-12-18T14:53:33.403Z,17.08
2022-12-18T14:56:00.053Z,16.73
2022-12-18T14:58:26.932Z,15.85
2022-12-18T15:00:54.559Z,17.05
2022-12-18T15:03:22.793Z,17.95
2022-12-18T15:05:49.799Z,17.52
2022-12-18T15:08:39.715Z,16.17
2022-12-18T15:13:52.869Z,15.18
2022-12-18T15:16:19.605Z,16.60
2022-12-18T15:18:49.061Z,17.95
2022-12-18T15:21:19.611Z,15.88
2022-12-18T15:23:47.774Z,17.10
2022-12-18T15:26:16.768Z,15.93
2022-12-18T15:28:51.041Z,17.35
2022-12-18T15:31:18.037Z,17.00
2022-12-18T15:33:53.988Z,17.55
2022-12-18T15:36:26.571Z,17.98
2022-12-18T15:38:58.916Z,17.63
2022-12-18T15:41:35.851Z,17.15
2022-12-18T15:44:03.888Z,17.27
2022-12-18T15:46:31.932Z,17.33
2022-12-18T15:49:02.120Z,17.52
2022-12-18T15:51:34.338Z,16.08
2022-12-18T15:54:04.861Z,14.55
2022-12-18T15:56:50.594Z,12.30
2022-12-18T15:59:20.063Z,10.93
2022-12-18T16:01:49.113Z,7.95
2022-12-18T16:04:17.773Z,7.25
2022-12-18T16:07:13.456Z,4.05
2022-12-18T16:09:31.193Z,3.20
2022-12-18T16:12:01.079Z,2.28
2022-12-18T16:14:29.779Z,2.50
2022-12-18T16:16:58.715Z,3.20
2022-12-18T16:19:26.028Z,2.40
2022-12-18T16:21:55.810Z,2.38
2022-12-18T16:24:25.339Z,2.38
2022-12-18T16:26:53.180Z,2.45
2022-12-18T16:29:27.907Z,2.05
2022-12-18T16:31:58.048Z,2.35
2022-12-18T16:34:29.789Z,2.50
2022-12-18T16:37:01.677Z,2.40
2022-12-18T16:39:31.914Z,2.95
2022-12-18T16:41:58.514Z,2.45
2022-12-18T16:44:26.033Z,2.10
2022-12-18T16:46:52.749Z,2.25
2022-12-18T16:49:20.411Z,2.35
2022-12-18T16:51:47.499Z,2.40
2022-12-18T16:54:18.892Z,2.70
2022-12-18T16:56:49.770Z,2.60
2022-12-18T16:59:16.716Z,3.05
2022-12-18T17:01:44.490Z,2.20
2022-12-18T17:04:11.554Z,2.55
2022-12-18T17:06:44.443Z,1.98
2022-12-18T17:09:14.539Z,2.30
2022-12-18T17:11:41.132Z,2.90
2022-12-18T17:14:14.462Z,2.38
2022-12-18T17:16:41.348Z,2.13
2022-12-18T17:19:10.961Z,2.65
2022-12-18T17:21:42.042Z,2.47
2022-12-18T17:24:09.230Z,2.30
2022-12-18T17:26:35.758Z,2.17
2022-12-18T17:29:02.676Z,2.45
2022-12-18T17:31:30.635Z,2.50
2022-12-18T17:33:58.083Z,2.53
2022-12-18T17:36:28.617Z,2.10
2022-12-18T17:39:00.242Z,2.40
2022-12-18T17:41:28.879Z,2.08
2022-12-18T17:43:57.702Z,1.67
2022-12-18T17:46:25.896Z,2.30
2022-12-18T17:48:54.958Z,2.33
2022-12-18T17:51:21.637Z,2.30
2022-12-18T17:53:48.596Z,2.30
2022-12-18T17:56:17.515Z,2.30
2022-12-18T17:58:44.693Z,1.88
2022-12-18T18:01:17.545Z,2.88
2022-12-18T18:03:46.016Z,1.95
2022-12-18T18:06:15.523Z,2.33
2022-12-18T18:08:42.394Z,2.50
2022-12-18T18:11:31.767Z,2.30
2022-12-18T18:14:02.091Z,2.63
2022-12-18T18:16:29.941Z,2.83
2022-12-18T18:19:05.665Z,2.63
2022-12-18T18:21:32.981Z,2.55
2022-12-18T18:24:02.162Z,2.33
2022-12-18T18:26:31.513Z,2.78
2022-12-18T18:28:59.661Z,3.22
2022-12-18T18:31:30.045Z,3.67
2022-12-18T18:33:57.467Z,3.20
2022-12-18T18:36:24.736Z,2.42
2022-12-18T18:38:52.049Z,2.97
2022-12-18T18:41:19.259Z,2.70
2022-12-18T18:43:46.336Z,2.15
2022-12-18T18:46:15.100Z,2.45
2022-12-18T18:48:42.495Z,2.13
2022-12-18T18:51:20.325Z,2.20
2022-12-18T18:53:50.098Z,2.30
2022-12-18T18:59:05.236Z,2.45
2022-12-18T19:01:32.417Z,2.33
2022-12-18T19:03:59.104Z,2.47
2022-12-18T19:06:28.002Z,2.63
2022-12-18T19:08:55.956Z,2.45
2022-12-18T19:11:42.544Z,2.17
2022-12-18T19:14:11.747Z,2.20
2022-12-18T19:16:39.057Z,2.30
2022-12-18T19:19:06.591Z,2.13
2022-12-18T19:21:34.792Z,1.98
2022-12-18T19:24:02.766Z,2.13
2022-12-18T19:26:30.311Z,2.28
2022-12-18T19:29:05.790Z,2.35
2022-12-18T19:31:36.152Z,2.22
2022-12-18T19:36:32.888Z,1.80
2022-12-18T19:39:01.753Z,1.80
2022-12-18T19:41:31.341Z,1.80
2022-12-18T19:44:00.120Z,2.03
2022-12-18T19:46:28.873Z,1.83
2022-12-18T19:48:55.367Z,1.70
2022-12-18T19:51:27.633Z,2.10
2022-12-18T19:53:58.756Z,2.40
2022-12-18T19:56:27.751Z,1.95
2022-12-18T19:58:54.940Z,1.85
2022-12-18T20:01:24.121Z,1.90
2022-12-18T20:03:52.735Z,1.88
2022-12-18T20:06:25.742Z,2.20
2022-12-18T20:08:53.979Z,2.00
2022-12-18T20:11:24.473Z,1.73
2022-12-18T20:13:51.042Z,1.90
2022-12-18T20:16:17.750Z,2.00
2022-12-18T20:18:44.289Z,2.33
2022-12-18T20:21:13.870Z,1.67
2022-12-18T20:23:41.575Z,1.90
2022-12-18T20:26:08.616Z,2.15
2022-12-18T20:28:35.617Z,2.08
2022-12-18T20:31:04.691Z,1.95
2022-12-18T20:33:31.561Z,1.73
2022-12-18T20:36:06.873Z,1.70
2022-12-18T20:38:35.271Z,1.75
2022-12-18T20:41:06.520Z,1.95
2022-12-18T20:43:33.194Z,1.40
2022-12-18T20:46:05.495Z,1.92
2022-12-18T20:48:32.726Z,1.60
2022-12-18T20:51:05.834Z,2.22
2022-12-18T20:53:35.664Z,1.40
2022-12-18T20:56:09.861Z,1.83
2022-12-18T20:58:36.705Z,1.95
2022-12-18T21:01:11.980Z,2.20
2022-12-18T21:03:43.658Z,1.83
2022-12-18T21:06:10.756Z,2.13
2022-12-18T21:08:38.159Z,1.60
2022-12-18T21:11:55.492Z,1.88
2022-12-18T21:14:25.676Z,1.90
2022-12-18T21:16:55.396Z,1.95
2022-12-18T21:19:25.468Z,2.00
2022-12-18T21:21:53.777Z,1.73
2022-12-18T21:24:20.358Z,1.60
2022-12-18T21:26:48.398Z,1.88
2022-12-18T21:29:17.845Z,1.75
2022-12-18T21:31:45.476Z,1.88
2022-12-18T21:34:21.373Z,2.00
2022-12-18T21:36:48.479Z,1.77
2022-12-18T21:39:16.661Z,2.00
2022-12-18T21:42:02.310Z,2.00
2022-12-18T21:44:29.584Z,1.90
2022-12-18T21:47:02.441Z,1.92
2022-12-18T21:49:36.141Z,2.10
2022-12-18T21:52:02.723Z,1.60
2022-12-18T21:54:30.001Z,1.80
2022-12-18T21:56:59.360Z,1.58
2022-12-18T21:59:33.391Z,1.80
2022-12-18T22:02:03.056Z,1.90
2022-12-18T22:04:29.884Z,1.70
2022-12-18T22:06:56.476Z,1.83
2022-12-18T22:09:24.781Z,1.55
2022-12-18T22:11:52.124Z,1.70
2022-12-18T22:14:18.837Z,2.22
2022-12-18T22:16:45.661Z,2.58
2022-12-18T22:19:14.815Z,1.60
2022-12-18T22:21:45.855Z,1.92
2022-12-18T22:24:14.899Z,2.05
2022-12-18T22:26:41.816Z,1.70
2022-12-18T22:29:35.896Z,2.22
2022-12-18T22:32:03.429Z,2.80
2022-12-18T22:34:34.213Z,3.38
2022-12-18T22:37:03.102Z,2.88
2022-12-18T22:39:30.258Z,3.28
2022-12-18T22:41:57.831Z,3.05
2022-12-18T22:44:26.021Z,3.45
2022-12-18T22:47:03.534Z,3.28
2022-12-18T22:49:32.650Z,2.35
2022-12-18T22:52:01.360Z,2.13
2022-12-18T22:54:27.871Z,2.25
2022-12-18T22:56:54.425Z,2.00
2022-12-18T22:59:22.947Z,1.58
2022-12-18T23:01:52.925Z,1.80
2022-12-18T23:04:31.990Z,1.75
2022-12-18T23:07:03.338Z,1.48
2022-12-18T23:09:29.992Z,1.50
2022-12-18T23:11:56.513Z,1.40
2022-12-18T23:14:23.034Z,1.70
2022-12-18T23:16:49.693Z,1.60
2022-12-18T23:19:18.841Z,1.45
2022-12-18T23:21:45.351Z,1.40
2022-12-18T23:24:12.222Z,1.80
2022-12-18T23:26:38.966Z,1.20
2022-12-18T23:29:06.000Z,1.73
2022-12-18T23:31:35.136Z,1.60
2022-12-18T23:34:03.363Z,1.83
2022-12-18T23:36:31.120Z,1.40
2022-12-18T23:39:11.881Z,1.40
2022-12-18T23:41:41.924Z,1.58
2022-12-18T23:44:10.076Z,1.80
2022-12-18T23:46:37.712Z,1.80
2022-12-18T23:49:05.861Z,1.80
2022-12-18T23:51:33.391Z,2.05
2022-12-18T23:54:02.367Z,1.77
2022-12-18T23:56:30.387Z,1.48
2022-12-18T23:58:57.391Z,1.38
